Time;durP1;ratioP1;P1;durP2;ratioP2;P2;SDS_P1;SDS_P2;PMS_P1;PMS_P2;Temp;Humidity;BMP_temperature;BMP_pressure;BME280_temperature;BME280_humidity;BME280_pressure;Samples;Min_cycle;Max_cycle;Signal;HPM_P1;HPM_P2
2022/05/18 00:00:51;;;;;;;17.10;11.57;;;;;;;17.25;100.00;98858.31;5111277;28;20197;-82
2022/05/18 00:03:20;;;;;;;13.60;11.10;;;;;;;17.28;100.00;98851.09;5111140;28;20632;-82
2022/05/18 00:05:47;;;;;;;16.43;11.53;;;;;;;17.27;100.00;98848.66;5111472;28;20679;-83
2022/05/18 00:08:16;;;;;;;17.43;11.40;;;;;;;17.26;100.00;98840.09;5111289;28;20228;-85
2022/05/18 00:10:45;;;;;;;12.87;10.83;;;;;;;17.29;100.00;98829.44;5111378;28;20206;-83
2022/05/18 00:13:13;;;;;;;13.50;10.93;;;;;;;17.27;100.00;98831.34;5111530;28;20711;-82
2022/05/18 00:15:40;;;;;;;15.67;11.03;;;;;;;17.28;100.00;98830.41;5110973;28;20200;-83
2022/05/18 00:18:08;;;;;;;15.53;10.60;;;;;;;17.21;100.00;98826.84;5111341;28;20223;-83
2022/05/18 00:20:35;;;;;;;15.50;10.57;;;;;;;17.19;100.00;98821.00;5110818;28;20201;-81
2022/05/18 00:23:04;;;;;;;15.63;10.40;;;;;;;17.14;100.00;98811.16;5110577;28;20290;-83
2022/05/18 00:25:34;;;;;;;13.37;10.40;;;;;;;17.15;100.00;98806.81;5110799;28;20686;-85
2022/05/18 00:28:02;;;;;;;13.20;9.97;;;;;;;17.14;100.00;98789.69;5111093;28;20638;-84
2022/05/18 00:30:30;;;;;;;11.53;9.57;;;;;;;17.09;100.00;98776.44;5110862;28;20208;-83
2022/05/18 00:33:02;;;;;;;15.10;10.60;;;;;;;17.05;100.00;98780.34;5110607;28;20236;-83
2022/05/18 00:35:30;;;;;;;13.37;10.20;;;;;;;17.06;100.00;98787.09;5110865;28;20197;-81
2022/05/18 00:37:57;;;;;;;13.67;10.30;;;;;;;17.03;100.00;98797.75;5110921;28;20224;-84
2022/05/18 00:40:24;;;;;;;13.97;10.37;;;;;;;17.01;100.00;98820.34;5110604;28;20209;-84
2022/05/18 00:42:52;;;;;;;14.67;10.53;;;;;;;17.01;100.00;98815.19;5110810;28;20712;-85
2022/05/18 00:45:20;;;;;;;15.90;9.93;;;;;;;17.02;100.00;98816.81;5110613;28;20189;-83
2022/05/18 00:47:46;;;;;;;12.30;9.80;;;;;;;17.03;100.00;98813.25;5110560;28;20228;-85
2022/05/18 00:50:18;;;;;;;17.83;10.13;;;;;;;17.04;100.00;98814.84;5110730;28;20201;-84
2022/05/18 00:52:48;;;;;;;14.20;10.00;;;;;;;16.93;100.00;98819.38;5110811;28;20304;-83
2022/05/18 00:55:20;;;;;;;12.67;9.87;;;;;;;16.86;100.00;98822.72;5110638;28;20673;-84
2022/05/18 00:57:51;;;;;;;10.80;8.67;;;;;;;16.89;100.00;98823.22;5110604;28;20225;-80
2022/05/18 01:00:21;;;;;;;13.50;9.30;;;;;;;16.84;100.00;98817.75;5110324;28;20732;-81
2022/05/18 01:02:53;;;;;;;12.07;9.10;;;;;;;16.84;100.00;98825.47;5110310;28;20246;-82
2022/05/18 01:05:23;;;;;;;11.43;8.53;;;;;;;16.86;100.00;98818.38;5110139;28;20238;-82
2022/05/18 01:07:52;;;;;;;13.70;9.63;;;;;;;16.86;100.00;98820.94;5110012;28;20225;-84
2022/05/18 01:10:20;;;;;;;11.60;8.43;;;;;;;16.89;100.00;98823.22;5110354;28;20209;-82
2022/05/18 01:12:47;;;;;;;11.60;8.63;;;;;;;17.00;100.00;98823.91;5110540;28;20213;-84
2022/05/18 01:15:18;;;;;;;13.03;8.27;;;;;;;17.00;100.00;98829.06;5110392;28;20475;-82
2022/05/18 01:17:49;;;;;;;10.37;8.20;;;;;;;16.99;100.00;98828.25;5110155;28;20746;-84
2022/05/18 01:20:22;;;;;;;11.73;8.37;;;;;;;16.89;100.00;98818.06;5110058;28;20193;-84
2022/05/18 01:23:02;;;;;;;10.43;8.40;;;;;;;16.91;100.00;98818.72;5110373;28;20713;-82
2022/05/18 01:25:44;;;;;;;10.70;8.33;;;;;;;16.91;100.00;98816.13;5109908;28;20258;-84
2022/05/18 01:28:13;;;;;;;10.80;8.73;;;;;;;16.92;100.00;98811.75;5109989;28;20216;-83
2022/05/18 01:30:43;;;;;;;10.53;8.03;;;;;;;16.92;100.00;98797.06;5110050;28;20197;-84
2022/05/18 01:33:11;;;;;;;10.83;8.03;;;;;;;16.89;100.00;98799.97;5110379;28;20231;-82
2022/05/18 01:35:42;;;;;;;11.53;8.07;;;;;;;16.83;100.00;98797.22;5109813;28;20220;-84
2022/05/18 01:38:12;;;;;;;10.33;8.17;;;;;;;16.77;100.00;98801.25;5110151;28;20221;-82
2022/05/18 01:40:49;;;;;;;12.70;8.23;;;;;;;16.75;100.00;98785.06;5110242;28;20196;-85
2022/05/18 01:43:22;;;;;;;11.40;8.00;;;;;;;16.73;100.00;98792.19;5109690;28;20243;-83
2022/05/18 01:45:51;;;;;;;11.00;7.63;;;;;;;16.70;100.00;98785.56;5110081;28;20220;-82
2022/05/18 01:48:21;;;;;;;10.60;8.03;;;;;;;16.65;100.00;98785.22;5109663;28;20244;-84
2022/05/18 01:50:49;;;;;;;10.60;7.53;;;;;;;16.64;100.00;98782.78;5110266;28;20201;-82
2022/05/18 01:53:16;;;;;;;11.00;7.63;;;;;;;16.58;100.00;98780.81;5110373;28;20225;-82
2022/05/18 01:55:43;;;;;;;9.33;7.27;;;;;;;16.56;100.00;98775.03;5110176;28;20468;-82
2022/05/18 01:58:12;;;;;;;9.27;7.77;;;;;;;16.60;100.00;98781.47;5109657;28;20738;-82
2022/05/18 02:00:40;;;;;;;9.93;7.33;;;;;;;16.57;100.00;98764.53;5112223;28;20640;-82
2022/05/18 02:03:07;;;;;;;9.60;7.47;;;;;;;16.62;100.00;98769.22;5113486;28;21029;-82
2022/05/18 02:05:36;;;;;;;9.33;7.63;;;;;;;16.60;100.00;98763.41;5113653;28;20204;-84
2022/05/18 02:08:03;;;;;;;9.07;7.40;;;;;;;16.62;100.00;98759.72;5113695;28;20230;-82
2022/05/18 02:10:31;;;;;;;10.67;7.97;;;;;;;16.63;100.00;98765.69;5113723;28;20280;-84
2022/05/18 02:12:58;;;;;;;8.63;7.50;;;;;;;16.68;100.00;98763.44;5113741;28;20221;-84
2022/05/18 02:15:25;;;;;;;10.67;7.97;;;;;;;16.69;100.00;98765.03;5113466;28;20205;-84
2022/05/18 02:17:53;;;;;;;11.30;8.13;;;;;;;16.68;100.00;98768.59;5113259;28;20252;-84
2022/05/18 02:20:21;;;;;;;9.97;7.77;;;;;;;16.65;100.00;98763.75;5113276;28;20215;-83
2022/05/18 02:22:48;;;;;;;9.93;7.90;;;;;;;16.58;100.00;98768.75;5113219;28;20241;-85
2022/05/18 02:25:15;;;;;;;10.70;8.07;;;;;;;16.51;100.00;98768.53;5113167;28;20295;-83
2022/05/18 02:27:42;;;;;;;12.83;8.63;;;;;;;16.52;100.00;98762.44;5113283;28;20217;-81
2022/05/18 02:30:10;;;;;;;9.90;8.50;;;;;;;16.49;100.00;98773.06;5113393;28;20193;-82
2022/05/18 02:32:37;;;;;;;11.77;8.63;;;;;;;16.50;100.00;98761.78;5112926;28;20625;-81
2022/05/18 02:35:06;;;;;;;17.67;9.83;;;;;;;16.52;100.00;98770.19;5113115;27;20639;-84
2022/05/18 02:37:34;;;;;;;10.40;8.57;;;;;;;16.42;100.00;98766.09;5113048;27;20745;-82
2022/05/18 02:40:01;;;;;;;10.83;8.03;;;;;;;16.46;100.00;98765.66;5112800;28;20189;-80
2022/05/18 02:42:28;;;;;;;11.80;7.70;;;;;;;16.47;100.00;98761.28;5112865;28;20217;-82
2022/05/18 02:44:55;;;;;;;10.50;7.70;;;;;;;16.46;100.00;98759.66;5112971;28;20189;-81
2022/05/18 02:47:23;;;;;;;8.97;7.57;;;;;;;16.44;100.00;98759.81;5113042;28;20220;-81
2022/05/18 02:49:51;;;;;;;9.57;7.73;;;;;;;16.44;100.00;98767.56;5112676;28;20194;-80
2022/05/18 02:52:20;;;;;;;10.50;7.90;;;;;;;16.48;100.00;98758.53;5113032;28;20229;-80
2022/05/18 02:57:31;;;;;;;8.77;6.83;;;;;;;16.47;100.00;98762.09;5112708;28;20730;-82
2022/05/18 02:59:59;;;;;;;8.60;7.07;;;;;;;16.46;100.00;98755.31;5112330;28;20193;-85
2022/05/18 03:02:25;;;;;;;10.93;7.07;;;;;;;16.52;100.00;98754.69;5112471;28;20319;-84
2022/05/18 03:04:52;;;;;;;8.63;7.13;;;;;;;16.53;100.00;98764.03;5112177;28;20194;-82
2022/05/18 03:07:20;;;;;;;8.60;6.83;;;;;;;16.52;100.00;98759.03;5112551;28;20213;-84
2022/05/18 03:09:47;;;;;;;7.70;6.60;;;;;;;16.57;100.00;98766.31;5112335;28;20221;-84
2022/05/18 03:12:14;;;;;;;7.07;5.97;;;;;;;16.54;100.00;98767.44;5112636;28;20220;-82
2022/05/18 03:14:41;;;;;;;7.60;6.33;;;;;;;16.58;100.00;98761.00;5112294;28;20201;-83
2022/05/18 03:17:08;;;;;;;7.03;5.80;;;;;;;16.56;100.00;98769.88;5112644;28;20208;-83
2022/05/18 03:19:35;;;;;;;7.57;5.67;;;;;;;16.53;100.00;98764.03;5111925;28;20228;-82
2022/05/18 03:24:47;;;;;;;7.30;6.03;;;;;;;16.59;100.00;98764.38;5112040;28;20283;-80
2022/05/18 03:27:14;;;;;;;9.07;5.83;;;;;;;16.61;100.00;98762.44;5112312;28;20235;-80
2022/05/18 03:29:41;;;;;;;7.37;6.33;;;;;;;16.62;100.00;98762.28;5111998;28;20676;-81
2022/05/18 03:32:09;;;;;;;7.17;5.70;;;;;;;16.58;100.00;98762.75;5111633;28;20208;-82
2022/05/18 03:34:36;;;;;;;7.63;6.30;;;;;;;16.55;100.00;98763.06;5112007;28;20205;-79
2022/05/18 03:37:03;;;;;;;8.57;6.43;;;;;;;16.58;100.00;98770.50;5111919;28;20278;-81
2022/05/18 03:39:30;;;;;;;6.73;6.00;;;;;;;16.56;100.00;98769.88;5112013;28;20201;-80
2022/05/18 03:41:58;;;;;;;9.03;6.70;;;;;;;16.59;100.00;98775.50;5111586;28;20206;-82
2022/05/18 03:44:25;;;;;;;7.83;6.37;;;;;;;16.62;100.00;98775.19;5111691;28;20235;-81
2022/05/18 03:46:52;;;;;;;7.27;6.10;;;;;;;16.62;100.00;98782.13;5111607;28;20208;-80
2022/05/18 03:49:19;;;;;;;8.67;6.60;;;;;;;16.68;100.00;98784.09;5111635;28;20200;-80
2022/05/18 03:51:47;;;;;;;8.70;6.70;;;;;;;16.66;100.00;98794.56;5111598;28;20208;-80
2022/05/18 03:54:14;;;;;;;8.90;6.73;;;;;;;16.63;100.00;98792.28;5111785;28;20221;-82
2022/05/18 03:56:41;;;;;;;10.40;6.93;;;;;;;16.64;100.00;98798.25;5111643;28;20220;-80
2022/05/18 03:59:09;;;;;;;9.10;6.80;;;;;;;16.69;100.00;98803.75;5111537;28;20421;-80
2022/05/18 04:01:36;;;;;;;8.53;6.80;;;;;;;16.69;100.00;98806.34;5111625;28;20289;-81
2022/05/18 04:04:03;;;;;;;9.90;7.10;;;;;;;16.70;100.00;98803.63;5111266;28;20807;-81
2022/05/18 04:06:29;;;;;;;9.30;7.43;;;;;;;16.72;100.00;98800.88;5111519;28;20201;-84
2022/05/18 04:08:56;;;;;;;7.60;6.63;;;;;;;16.74;100.00;98809.28;5110937;28;20742;-81
2022/05/18 04:11:23;;;;;;;10.20;7.23;;;;;;;16.72;100.00;98818.94;5111262;28;20633;-85
2022/05/18 04:13:50;;;;;;;9.13;7.50;;;;;;;16.71;100.00;98818.13;5111104;28;20224;-82
2022/05/18 04:16:19;;;;;;;9.37;7.37;;;;;;;16.74;100.00;98819.59;5110926;28;20197;-84
2022/05/18 04:18:45;;;;;;;10.27;7.33;;;;;;;16.70;100.00;98824.28;5111308;28;20239;-82
2022/05/18 04:21:12;;;;;;;9.07;7.70;;;;;;;16.75;100.00;98831.53;5111162;28;20201;-80
2022/05/18 04:23:40;;;;;;;12.77;8.37;;;;;;;16.75;100.00;98834.94;5110267;28;20244;-82
2022/05/18 04:26:07;;;;;;;12.17;8.90;;;;;;;16.73;100.00;98833.47;5110671;28;20205;-80
2022/05/18 04:28:34;;;;;;;12.33;8.13;;;;;;;16.76;100.00;98838.38;5111142;28;20217;-82
2022/05/18 04:31:01;;;;;;;11.93;8.43;;;;;;;16.78;100.00;98840.78;5110712;28;20237;-80
2022/05/18 04:33:31;;;;;;;10.43;7.80;;;;;;;16.77;100.00;98839.16;5110718;28;20257;-82
2022/05/18 04:36:02;;;;;;;11.17;8.50;;;;;;;16.79;100.00;98838.03;5110973;28;20204;-82
2022/05/18 04:38:29;;;;;;;13.03;8.83;;;;;;;16.80;100.00;98844.00;5111218;28;20254;-82
2022/05/18 04:40:57;;;;;;;10.87;8.57;;;;;;;16.82;100.00;98848.06;5110567;28;20236;-82
2022/05/18 04:43:24;;;;;;;11.97;8.60;;;;;;;16.85;100.00;98854.69;5110426;28;20323;-80
2022/05/18 04:45:52;;;;;;;10.97;8.63;;;;;;;16.89;100.00;98854.19;5110683;28;20197;-81
2022/05/18 04:48:20;;;;;;;12.27;8.47;;;;;;;16.92;100.00;98864.22;5110301;28;20260;-83
2022/05/18 04:50:49;;;;;;;10.70;8.30;;;;;;;16.94;100.00;98862.28;5110477;28;20197;-82
2022/05/18 04:53:16;;;;;;;13.30;9.03;;;;;;;17.01;100.00;98864.25;5110324;28;20267;-83
2022/05/18 04:55:43;;;;;;;10.90;8.80;;;;;;;17.05;100.00;98873.31;5110531;28;20197;-80
2022/05/18 04:58:11;;;;;;;11.47;8.60;;;;;;;17.04;100.00;98876.84;5110774;28;20718;-81
2022/05/18 05:00:39;;;;;;;13.33;8.50;;;;;;;17.03;100.00;98875.25;5110283;28;20201;-80
2022/05/18 05:03:06;;;;;;;12.70;9.00;;;;;;;16.97;100.00;98877.47;5110266;28;20217;-81
2022/05/18 05:05:33;;;;;;;12.47;8.80;;;;;;;17.04;100.00;98882.00;5110364;28;20608;-81
2022/05/18 05:08:01;;;;;;;12.40;8.63;;;;;;;17.03;100.00;98886.38;5110205;28;20239;-80
2022/05/18 05:10:28;;;;;;;13.80;9.40;;;;;;;17.05;100.00;98888.81;5110236;28;20216;-81
2022/05/18 05:12:55;;;;;;;11.37;8.80;;;;;;;17.02;100.00;98894.28;5109969;28;20217;-82
2022/05/18 05:15:22;;;;;;;13.03;9.47;;;;;;;17.04;100.00;98889.75;5110168;28;20668;-81
2022/05/18 05:17:50;;;;;;;15.30;10.03;;;;;;;17.03;100.00;98895.91;5110164;28;20278;-81
2022/05/18 05:20:16;;;;;;;13.40;9.37;;;;;;;17.06;100.00;98905.91;5110284;28;20198;-81
2022/05/18 05:22:43;;;;;;;15.83;9.43;;;;;;;17.13;100.00;98963.72;5110066;28;20243;-81
2022/05/18 05:25:14;;;;;;;5.17;2.53;;;;;;;15.97;98.05;98939.94;5110011;28;20233;-78
2022/05/18 05:27:41;;;;;;;4.43;2.47;;;;;;;15.48;99.94;98960.91;5109898;28;20246;-80
2022/05/18 05:30:08;;;;;;;3.23;1.90;;;;;;;14.99;100.00;98988.66;5110109;28;20289;-80
2022/05/18 05:32:36;;;;;;;5.20;1.80;;;;;;;14.65;100.00;98980.63;5110072;28;20266;-79
2022/05/18 05:35:04;;;;;;;6.87;1.80;;;;;;;14.21;100.00;99000.84;5111210;28;20687;-78
2022/05/18 05:37:31;;;;;;;4.17;2.13;;;;;;;13.88;100.00;99009.75;5114345;28;20224;-76
2022/05/18 05:39:58;;;;;;;1.90;1.70;;;;;;;13.62;100.00;99020.53;5114083;28;20197;-75
2022/05/18 05:42:26;;;;;;;2.37;1.80;;;;;;;13.44;100.00;99014.38;5114104;28;20310;-78
2022/05/18 05:44:53;;;;;;;3.40;2.00;;;;;;;13.24;100.00;99029.72;5114106;28;20231;-76
2022/05/18 05:47:20;;;;;;;5.00;1.90;;;;;;;13.14;100.00;99031.41;5114467;28;20655;-76
2022/05/18 05:49:46;;;;;;;2.67;2.07;;;;;;;13.16;100.00;99039.81;5114185;28;20204;-76
2022/05/18 05:52:14;;;;;;;4.57;2.20;;;;;;;13.14;100.00;99051.94;5113982;28;20217;-76
2022/05/18 05:54:40;;;;;;;4.70;2.20;;;;;;;12.87;100.00;99070.44;5113988;28;20204;-77
2022/05/18 05:57:08;;;;;;;4.00;2.30;;;;;;;12.67;100.00;99075.44;5113911;27;20216;-76
2022/05/18 05:59:37;;;;;;;6.60;2.50;;;;;;;12.53;100.00;99073.19;5113795;28;20197;-76
2022/05/18 06:02:07;;;;;;;3.37;2.40;;;;;;;12.42;100.00;99071.50;5113557;28;20671;-76
2022/05/18 06:04:36;;;;;;;3.23;2.30;;;;;;;12.40;100.00;99065.66;5113745;28;20232;-76
2022/05/18 06:07:03;;;;;;;4.70;2.70;;;;;;;12.34;100.00;99068.72;5113694;28;20212;-76
2022/05/18 06:09:30;;;;;;;4.40;2.53;;;;;;;12.17;100.00;99082.88;5113762;28;20193;-76
2022/05/18 06:11:57;;;;;;;3.00;2.67;;;;;;;12.14;100.00;99095.13;5113810;28;20208;-77
2022/05/18 06:14:23;;;;;;;4.50;3.10;;;;;;;12.06;100.00;99095.72;5113335;28;20209;-76
2022/05/18 06:16:52;;;;;;;4.90;3.10;;;;;;;11.99;100.00;99103.06;5113639;28;20647;-76
2022/05/18 06:19:19;;;;;;;8.20;3.07;;;;;;;11.90;100.00;99101.22;5113722;28;20279;-77
2022/05/18 06:21:47;;;;;;;4.77;3.00;;;;;;;11.84;100.00;99132.41;5113523;28;20204;-77
2022/05/18 06:24:15;;;;;;;3.57;2.90;;;;;;;11.81;100.00;99142.91;5113348;28;20260;-78
2022/05/18 06:26:42;;;;;;;3.20;2.70;;;;;;;11.79;100.00;99160.13;5113509;28;20258;-79
2022/05/18 06:29:09;;;;;;;3.93;3.13;;;;;;;11.74;100.00;99154.53;5113249;28;20225;-78
2022/05/18 06:31:36;;;;;;;3.80;2.73;;;;;;;11.68;100.00;99167.81;5113086;28;20205;-79
2022/05/18 06:34:04;;;;;;;5.07;2.90;;;;;;;11.67;100.00;99161.06;5112985;28;20255;-78
2022/05/18 06:36:34;;;;;;;4.10;3.27;;;;;;;11.73;100.00;99165.72;5113201;28;20292;-79
2022/05/18 06:39:01;;;;;;;5.53;3.20;;;;;;;11.67;100.00;99171.31;5113065;28;20286;-76
2022/05/18 06:41:28;;;;;;;4.03;3.10;;;;;;;11.66;100.00;99175.59;5113077;28;20259;-77
2022/05/18 06:43:56;;;;;;;4.00;3.30;;;;;;;11.71;100.00;99175.25;5112930;28;20303;-78
2022/05/18 06:46:25;;;;;;;6.67;3.20;;;;;;;11.65;100.00;99185.97;5112217;28;20200;-76
2022/05/18 06:48:52;;;;;;;5.57;2.77;;;;;;;11.55;100.00;99204.56;5112960;28;20666;-75
2022/05/18 06:51:22;;;;;;;6.63;3.10;;;;;;;11.55;100.00;99208.88;5112938;28;20201;-78
2022/05/18 06:53:51;;;;;;;2.70;2.43;;;;;;;11.49;100.00;99210.16;5112856;28;20221;-76
2022/05/18 06:56:19;;;;;;;5.60;2.77;;;;;;;11.46;100.00;99183.94;5112363;28;20243;-76
2022/05/18 06:58:47;;;;;;;5.53;2.80;;;;;;;11.30;100.00;99202.19;5112764;27;20278;-77
2022/05/18 07:01:14;;;;;;;6.53;2.80;;;;;;;11.19;100.00;99212.41;5112538;28;20197;-75
2022/05/18 07:03:41;;;;;;;7.53;3.17;;;;;;;11.12;100.00;99232.50;5112592;28;20707;-75
2022/05/18 07:06:09;;;;;;;5.57;3.00;;;;;;;11.03;100.00;99244.22;5112396;28;20295;-75
2022/05/18 07:08:38;;;;;;;3.03;2.50;;;;;;;10.96;100.00;99232.78;5112186;28;20226;-76
2022/05/18 07:11:05;;;;;;;2.90;2.37;;;;;;;10.77;100.00;99232.47;5112313;28;20217;-76
2022/05/18 07:13:32;;;;;;;3.53;2.23;;;;;;;10.62;100.00;99239.47;5112306;28;20228;-76
2022/05/18 07:16:00;;;;;;;2.80;2.30;;;;;;;10.59;100.00;99232.84;5112373;28;20216;-77
2022/05/18 07:18:29;;;;;;;4.33;2.30;;;;;;;10.51;100.00;99234.28;5112138;27;20221;-76
2022/05/18 07:20:56;;;;;;;2.80;2.27;;;;;;;10.46;100.00;99259.34;5112265;28;20694;-80
2022/05/18 07:23:23;;;;;;;3.87;2.27;;;;;;;10.43;100.00;99273.16;5112150;28;20221;-79
2022/05/18 07:25:51;;;;;;;5.37;2.30;;;;;;;10.49;100.00;99285.50;5112295;28;20217;-79
2022/05/18 07:28:18;;;;;;;4.47;2.40;;;;;;;10.49;100.00;99280.41;5111990;28;20225;-80
2022/05/18 07:30:46;;;;;;;3.83;2.60;;;;;;;10.37;100.00;99286.34;5112341;28;20201;-78
2022/05/18 07:33:13;;;;;;;4.60;2.50;;;;;;;10.43;100.00;99296.16;5112125;28;20233;-76
2022/05/18 07:35:40;;;;;;;4.43;2.67;;;;;;;10.46;100.00;99283.16;5111723;28;20205;-78
2022/05/18 07:38:07;;;;;;;3.83;2.27;;;;;;;10.37;100.00;99288.91;5111868;28;20224;-80
2022/05/18 07:40:34;;;;;;;6.23;2.47;;;;;;;10.39;100.00;99299.84;5111776;28;20262;-78
2022/05/18 07:43:03;;;;;;;3.50;2.40;;;;;;;10.38;100.00;99310.97;5111709;28;20237;-78
2022/05/18 07:45:30;;;;;;;6.00;2.40;;;;;;;10.36;100.00;99307.72;5111617;28;20621;-79
2022/05/18 07:47:57;;;;;;;3.97;2.67;;;;;;;10.42;100.00;99325.19;5111577;28;20225;-80
2022/05/18 07:50:25;;;;;;;4.17;2.60;;;;;;;10.42;100.00;99317.53;5111465;27;20205;-80
2022/05/18 07:52:57;;;;;;;5.33;2.60;;;;;;;10.42;100.00;99326.00;5111492;28;20612;-78
2022/05/18 07:55:26;;;;;;;5.00;2.53;;;;;;;10.41;100.00;99333.78;5111805;28;20284;-81
2022/05/18 07:57:52;;;;;;;4.70;2.60;;;;;;;10.29;100.00;99326.94;5110589;28;20217;-79
2022/05/18 08:00:23;;;;;;;4.13;2.70;;;;;;;10.35;100.00;99334.19;5111512;28;20586;-78
2022/05/18 08:02:49;;;;;;;3.77;2.43;;;;;;;10.30;100.00;99338.81;5111624;28;20307;-75
2022/05/18 08:05:16;;;;;;;6.03;2.87;;;;;;;10.27;100.00;99346.66;5111146;28;20232;-82
2022/05/18 08:07:45;;;;;;;5.03;2.50;;;;;;;10.26;100.00;99350.94;5111582;28;20603;-79
2022/05/18 08:15:45;;;;;;;3.90;2.80;;;;;;;10.35;100.00;99352.06;5111212;28;20204;-78
2022/05/18 08:18:12;;;;;;;6.27;2.60;;;;;;;10.26;100.00;99360.34;5111550;28;20717;-79
2022/05/18 08:20:40;;;;;;;6.20;2.77;;;;;;;10.17;100.00;99371.97;5110970;28;20205;-79
2022/05/18 08:23:07;;;;;;;7.87;2.83;;;;;;;10.12;100.00;99363.78;5111001;28;20436;-79
2022/05/18 08:25:35;;;;;;;6.37;2.93;;;;;;;10.18;100.00;99366.78;5110720;28;20229;-79
2022/05/18 08:28:02;;;;;;;4.17;2.30;;;;;;;10.17;100.00;99382.19;5110853;28;20218;-79
2022/05/18 08:30:30;;;;;;;5.33;2.80;;;;;;;10.24;100.00;99397.94;5110787;28;20287;-79
2022/05/18 08:32:59;;;;;;;7.47;2.80;;;;;;;10.31;100.00;99389.00;5110790;28;20239;-80
2022/05/18 08:35:27;;;;;;;8.20;2.67;;;;;;;10.19;100.00;99395.69;5110830;28;20197;-79
2022/05/18 08:37:54;;;;;;;10.00;2.60;;;;;;;10.11;100.00;99387.72;5110918;28;20229;-79
2022/05/18 08:40:37;;;;;;;7.23;2.40;;;;;;;10.23;100.00;99416.75;5111052;28;20279;-80
2022/05/18 08:43:07;;;;;;;6.10;2.67;;;;;;;10.17;100.00;99423.09;5110550;28;20220;-78
2022/05/18 08:45:36;;;;;;;3.47;2.53;;;;;;;10.20;100.00;99426.25;5110666;28;20228;-79
2022/05/18 08:48:10;;;;;;;4.70;2.73;;;;;;;10.27;100.00;99416.50;5110849;28;20221;-78
2022/05/18 08:50:39;;;;;;;7.80;3.20;;;;;;;10.33;100.00;99425.50;5110337;28;21045;-82
2022/05/18 08:53:32;;;;;;;8.57;2.37;;;;;;;10.38;100.00;99433.66;5110784;28;20228;-80
2022/05/18 08:56:05;;;;;;;5.13;2.60;;;;;;;10.42;100.00;99443.59;5110472;28;20667;-78
2022/05/18 08:58:41;;;;;;;4.47;2.70;;;;;;;10.46;100.00;99449.31;5110560;28;20232;-81
2022/05/18 09:01:13;;;;;;;4.60;2.40;;;;;;;10.38;100.00;99467.72;5110373;28;20193;-81
2022/05/18 09:03:44;;;;;;;5.67;2.67;;;;;;;10.24;99.10;99464.38;5110444;28;20221;-79
2022/05/18 09:06:22;;;;;;;3.77;2.33;;;;;;;10.12;98.84;99464.28;5110130;28;20236;-77
2022/05/18 09:10:12;;;;;;;7.13;2.33;;;;;;;10.01;100.00;99464.16;5109949;28;20217;-82
2022/05/18 09:11:41;;;;;;;5.53;2.47;;;;;;;9.95;100.00;99459.44;5110111;28;20207;-81
2022/05/18 09:14:10;;;;;;;8.90;2.47;;;;;;;9.96;99.06;99466.16;5110199;27;20229;-78
2022/05/18 09:16:42;;;;;;;7.00;2.60;;;;;;;9.92;97.07;99480.06;5110063;28;20231;-81
2022/05/18 09:19:19;;;;;;;3.50;2.00;;;;;;;9.92;96.23;99491.09;5110288;28;20282;-81
2022/05/18 09:21:58;;;;;;;6.20;2.10;;;;;;;9.96;96.50;99497.63;5110266;28;20201;-80
2022/05/18 09:24:40;;;;;;;5.60;2.47;;;;;;;9.99;96.82;99483.84;5110118;28;20205;-79
2022/05/18 09:27:27;;;;;;;4.30;2.23;;;;;;;10.03;95.63;99490.38;5110376;28;20204;-81
2022/05/18 09:30:08;;;;;;;4.30;2.20;;;;;;;10.16;96.72;99503.22;5109840;28;20212;-79
2022/05/18 09:32:59;;;;;;;3.70;2.53;;;;;;;10.14;95.83;99520.38;5109873;28;20695;-78
2022/05/18 09:35:50;;;;;;;4.67;2.30;;;;;;;10.15;95.33;99517.72;5109758;28;20266;-79
2022/05/18 09:38:23;;;;;;;12.77;2.73;;;;;;;10.14;94.61;99516.06;5110549;28;20225;-78
2022/05/18 09:40:51;;;;;;;2.37;1.97;;;;;;;10.25;95.68;99509.47;5109787;28;20200;-78
2022/05/18 09:43:27;;;;;;;4.30;2.27;;;;;;;10.23;95.01;99517.22;5109977;28;20274;-82
2022/05/18 09:45:57;;;;;;;5.03;2.37;;;;;;;10.22;94.56;99520.72;5109657;28;20229;-77
2022/05/18 09:48:31;;;;;;;4.37;2.23;;;;;;;10.24;93.90;99535.94;5109623;28;20404;-78
2022/05/18 09:51:00;;;;;;;5.07;2.30;;;;;;;10.30;95.35;99556.84;5110011;28;20272;-82
2022/05/18 09:53:27;;;;;;;4.37;2.40;;;;;;;10.23;95.48;99557.31;5109626;28;20737;-81
2022/05/18 09:55:54;;;;;;;4.23;2.10;;;;;;;10.18;96.18;99566.09;5109722;28;20612;-84
2022/05/18 09:58:27;;;;;;;4.23;2.00;;;;;;;10.10;95.45;99581.06;5109664;28;20217;-78
2022/05/18 10:07:27;;;;;;;3.70;2.00;;;;;;;10.15;96.88;99563.72;5109824;28;20189;-82
2022/05/18 10:09:46;;;;;;;4.97;2.27;;;;;;;10.12;100.00;99579.25;5109724;28;20710;-77
2022/05/18 10:12:16;;;;;;;5.63;2.50;;;;;;;10.10;100.00;99586.19;5110043;28;20213;-78
2022/05/18 10:14:48;;;;;;;7.33;2.40;;;;;;;10.02;100.00;99593.50;5109548;28;20209;-78
2022/05/18 10:17:16;;;;;;;5.33;2.77;;;;;;;10.12;100.00;99594.59;5109981;28;20773;-78
2022/05/18 10:19:46;;;;;;;6.83;2.33;;;;;;;10.03;100.00;99610.44;5109502;28;20197;-78
2022/05/18 10:22:20;;;;;;;8.13;2.97;;;;;;;10.08;100.00;99613.56;5112904;28;20711;-78
2022/05/18 10:24:52;;;;;;;6.20;2.73;;;;;;;10.01;100.00;99617.41;5113562;28;20586;-78
2022/05/18 10:27:25;;;;;;;3.23;2.30;;;;;;;10.02;100.00;99613.94;5113768;28;20223;-79
2022/05/18 10:30:04;;;;;;;4.63;2.57;;;;;;;10.01;100.00;99629.38;5113451;28;20205;-79
2022/05/18 10:32:32;;;;;;;4.77;2.80;;;;;;;10.07;100.00;99632.38;5113201;28;20221;-78
2022/05/18 10:35:01;;;;;;;7.87;2.87;;;;;;;10.10;100.00;99652.63;5113019;28;20227;-79
2022/05/18 10:37:33;;;;;;;6.00;3.30;;;;;;;10.25;100.00;99660.25;5113357;28;20217;-79
2022/05/18 10:40:04;;;;;;;6.93;3.00;;;;;;;10.22;100.00;99663.81;5112984;28;20360;-78
2022/05/18 10:42:42;;;;;;;4.03;2.97;;;;;;;10.34;100.00;99659.72;5113317;28;20232;-79
2022/05/18 10:45:33;;;;;;;4.43;2.80;;;;;;;10.46;100.00;99664.06;5111982;28;20229;-79
2022/05/18 10:48:06;;;;;;;6.10;3.07;;;;;;;10.62;100.00;99651.13;5113068;28;20225;-78
2022/05/18 10:50:36;;;;;;;9.00;3.03;;;;;;;10.65;100.00;99638.97;5112650;28;20205;-78
2022/05/18 10:53:28;;;;;;;7.10;3.20;;;;;;;10.67;100.00;99627.81;5112788;28;20308;-78
2022/05/18 10:56:03;;;;;;;5.07;2.80;;;;;;;10.63;100.00;99630.56;5112773;28;20197;-78
2022/05/18 10:58:33;;;;;;;5.30;2.53;;;;;;;10.56;100.00;99648.94;5113121;28;20224;-79
2022/05/18 11:01:04;;;;;;;5.43;2.80;;;;;;;10.55;100.00;99663.47;5112866;28;20197;-79
2022/05/18 11:03:40;;;;;;;6.10;2.80;;;;;;;10.56;100.00;99666.84;5112780;28;20217;-79
2022/05/18 11:06:11;;;;;;;5.57;2.90;;;;;;;10.37;100.00;99659.53;5112393;28;20726;-79
2022/05/18 11:08:39;;;;;;;5.37;2.53;;;;;;;10.17;99.67;99666.63;5112808;28;20224;-78
2022/05/18 11:11:16;;;;;;;4.77;2.33;;;;;;;10.08;98.64;99659.53;5112318;28;20738;-79
2022/05/18 11:13:48;;;;;;;4.47;2.40;;;;;;;10.06;98.46;99663.91;5112603;28;20225;-78
2022/05/18 11:16:32;;;;;;;9.53;2.67;;;;;;;10.15;100.00;99659.97;5112806;28;20205;-80
2022/05/18 11:19:06;;;;;;;4.57;2.60;;;;;;;10.28;100.00;99672.88;5112447;28;20228;-81
2022/05/18 11:21:45;;;;;;;5.33;2.43;;;;;;;10.36;100.00;99668.94;5112392;28;20197;-79
2022/05/18 11:24:20;;;;;;;4.90;2.97;;;;;;;10.40;100.00;99665.25;5112519;28;20239;-79
2022/05/18 11:27:00;;;;;;;5.73;3.03;;;;;;;10.45;100.00;99664.97;5112385;28;20605;-79
2022/05/18 11:29:42;;;;;;;4.77;2.93;;;;;;;10.81;100.00;99668.69;5111919;28;20671;-80
2022/05/18 11:32:21;;;;;;;6.53;3.10;;;;;;;11.14;100.00;99670.81;5111795;28;20201;-80
2022/05/18 11:35:01;;;;;;;4.60;2.70;;;;;;;11.38;100.00;99673.50;5112090;28;20205;-79
2022/05/18 11:40:36;;;;;;;4.93;2.47;;;;;;;11.78;94.61;99678.53;5095456;28;20205;-79
2022/05/18 11:43:29;;;;;;;6.73;2.60;;;;;;;11.94;92.56;99675.75;5111910;28;20823;-81
2022/05/18 11:46:17;;;;;;;8.03;2.43;;;;;;;11.83;88.43;99694.38;5111792;27;20225;-79
2022/05/18 11:52:23;;;;;;;7.33;2.20;;;;;;;12.42;89.51;99681.78;5111813;28;20277;-78
2022/05/18 11:55:04;;;;;;;7.20;2.30;;;;;;;12.89;89.25;99684.47;5111575;28;20208;-79
2022/05/18 11:57:44;;;;;;;5.83;2.60;;;;;;;13.19;88.16;99686.53;5111478;28;20710;-78
2022/05/18 12:00:18;;;;;;;4.10;2.23;;;;;;;13.08;87.53;99689.06;5111772;28;20327;-78